Time;durP1;ratioP1;P1;durP2;ratioP2;P2;SDS_P1;SDS_P2;PMS_P1;PMS_P2;Temp;Humidity;BMP_temperature;BMP_pressure;BME280_temperature;BME280_humidity;BME280_pressure;Samples;Min_cycle;Max_cycle;Signal;HPM_P1;HPM_P2
2021/12/04 00:00:41;;;;;;;1.45;0.50;;;17.60;64.00;;;;;;5034784;28;20033;-27
2021/12/04 00:03:07;;;;;;;1.95;0.40;;;17.60;64.60;;;;;;5036074;28;20094;-27
2021/12/04 00:05:32;;;;;;;0.82;0.50;;;17.60;63.80;;;;;;5035050;28;20061;-31
2021/12/04 00:07:58;;;;;;;0.57;0.45;;;17.60;63.80;;;;;;5034879;28;20033;-31
2021/12/04 00:10:28;;;;;;;0.52;0.52;;;17.50;63.90;;;;;;5027988;28;20038;-30
2021/12/04 00:12:54;;;;;;;0.38;0.35;;;17.50;64.10;;;;;;5036204;28;20041;-26
2021/12/04 00:15:19;;;;;;;0.60;0.40;;;17.50;64.30;;;;;;5017662;28;20049;-26
2021/12/04 00:17:45;;;;;;;0.52;0.47;;;17.50;64.40;;;;;;5042956;28;20048;-29
2021/12/04 00:20:11;;;;;;;0.35;0.32;;;17.40;64.40;;;;;;5033712;28;20037;-29
2021/12/04 00:22:36;;;;;;;0.55;0.55;;;17.50;64.40;;;;;;5032091;28;20517;-26
2021/12/04 00:25:04;;;;;;;1.63;0.47;;;17.50;64.20;;;;;;5034532;28;20093;-27
2021/12/04 00:27:30;;;;;;;1.27;0.47;;;17.50;64.40;;;;;;5034675;28;20510;-25
2021/12/04 00:29:57;;;;;;;0.60;0.60;;;17.50;64.40;;;;;;5035587;28;20100;-25
2021/12/04 00:35:00;;;;;;;0.98;0.38;;;17.50;64.10;;;;;;5020610;28;20040;-29
2021/12/04 00:37:55;;;;;;;0.60;0.30;;;17.50;64.10;;;;;;5024362;28;20034;-26
2021/12/04 00:51:11;;;;;;;0.38;0.28;;;17.50;63.90;;;;;;5035952;28;20068;-29
2021/12/04 00:53:36;;;;;;;0.30;0.30;;;17.40;63.90;;;;;;5036425;28;20378;-31
2021/12/04 00:56:02;;;;;;;0.60;0.50;;;17.50;63.90;;;;;;5034461;28;20021;-33
2021/12/04 00:58:28;;;;;;;1.20;0.50;;;17.40;64.00;;;;;;5030423;28;20100;-29
2021/12/04 01:00:53;;;;;;;0.22;0.20;;;17.50;63.80;;;;;;5029658;28;20021;-27
2021/12/04 01:03:19;;;;;;;0.68;0.30;;;17.50;63.90;;;;;;5029792;28;20028;-25
2021/12/04 01:05:44;;;;;;;0.52;0.30;;;17.40;64.00;;;;;;5030303;28;20290;-26
2021/12/04 01:08:10;;;;;;;3.30;0.45;;;17.40;64.00;;;;;;5029682;28;20490;-33
2021/12/04 01:10:36;;;;;;;0.40;0.22;;;17.40;63.90;;;;;;5031042;28;20053;-27
2021/12/04 01:13:04;;;;;;;6.70;0.30;;;17.50;64.00;;;;;;5028637;28;20044;-28
2021/12/04 01:15:30;;;;;;;0.70;0.30;;;17.50;64.00;;;;;;5030609;28;20071;-25
2021/12/04 01:17:56;;;;;;;0.22;0.22;;;17.50;64.00;;;;;;5029233;28;20452;-30
2021/12/04 01:20:21;;;;;;;0.43;0.30;;;17.50;64.00;;;;;;5029553;28;20109;-27
2021/12/04 01:22:47;;;;;;;0.47;0.40;;;17.50;64.30;;;;;;5028452;28;20053;-26
2021/12/04 01:25:12;;;;;;;0.40;0.35;;;17.50;63.90;;;;;;5030335;28;20110;-27
2021/12/04 01:27:38;;;;;;;1.58;0.30;;;17.50;64.20;;;;;;5030622;28;20013;-23
2021/12/04 01:30:06;;;;;;;1.13;0.30;;;17.40;63.90;;;;;;5029625;28;20040;-29
2021/12/04 01:32:31;;;;;;;0.20;0.20;;;17.50;64.00;;;;;;5030000;28;20409;-30
2021/12/04 01:34:57;;;;;;;0.25;0.20;;;17.40;64.10;;;;;;5026426;28;20025;-30
2021/12/04 01:37:23;;;;;;;0.90;0.28;;;17.50;64.40;;;;;;5031431;28;20034;-34
2021/12/04 01:39:49;;;;;;;0.77;0.30;;;17.40;64.40;;;;;;5028219;28;20037;-26
2021/12/04 01:42:18;;;;;;;0.52;0.40;;;17.50;64.10;;;;;;5029818;28;20108;-29
2021/12/04 01:44:44;;;;;;;0.40;0.30;;;17.40;64.30;;;;;;5031713;28;20087;-27
2021/12/04 01:47:11;;;;;;;0.68;0.20;;;17.50;64.40;;;;;;5028075;28;20033;-22
2021/12/04 01:49:37;;;;;;;0.28;0.20;;;17.40;64.00;;;;;;5029045;28;20474;-27
2021/12/04 01:52:02;;;;;;;0.60;0.30;;;17.40;64.10;;;;;;5030993;28;20025;-29
2021/12/04 01:54:28;;;;;;;0.40;0.30;;;17.40;64.00;;;;;;5027829;28;20113;-28
2021/12/04 01:56:54;;;;;;;0.47;0.32;;;17.40;64.10;;;;;;5029311;28;20028;-31
2021/12/04 01:59:19;;;;;;;0.30;0.20;;;17.40;64.20;;;;;;5027352;28;20087;-27
2021/12/04 02:01:45;;;;;;;1.33;0.20;;;17.40;63.90;;;;;;5030162;28;20482;-27
2021/12/04 02:04:10;;;;;;;0.25;0.10;;;17.40;64.20;;;;;;5028982;28;20139;-24
2021/12/04 02:06:38;;;;;;;0.30;0.30;;;17.50;64.10;;;;;;5029275;28;20398;-29
2021/12/04 02:09:03;;;;;;;0.30;0.20;;;17.50;64.00;;;;;;5030275;28;20040;-26
2021/12/04 02:11:29;;;;;;;0.20;0.20;;;17.50;64.20;;;;;;5028590;28;20045;-25
2021/12/04 02:13:54;;;;;;;0.50;0.20;;;17.40;64.20;;;;;;5028526;28;20028;-24
2021/12/04 02:16:21;;;;;;;0.10;0.10;;;17.50;64.20;;;;;;5027785;28;20043;-27
2021/12/04 02:18:47;;;;;;;0.40;0.20;;;17.50;64.20;;;;;;5028180;28;20033;-29
2021/12/04 02:21:13;;;;;;;0.13;0.13;;;17.50;64.00;;;;;;5026560;28;20017;-27
2021/12/04 02:23:38;;;;;;;0.10;0.10;;;17.50;64.20;;;;;;5029830;28;20021;-28
2021/12/04 02:26:04;;;;;;;2.90;0.40;;;17.40;64.00;;;;;;5027037;28;20040;-27
2021/12/04 02:28:29;;;;;;;0.35;0.35;;;17.40;64.00;;;;;;5026069;28;20045;-25
2021/12/04 02:30:55;;;;;;;0.10;0.10;;;17.50;64.20;;;;;;5027508;28;20014;-26
2021/12/04 02:33:21;;;;;;;0.10;0.10;;;17.50;64.20;;;;;;5027947;28;21176;-25
2021/12/04 02:35:50;;;;;;;0.20;0.10;;;17.50;64.20;;;;;;5029586;28;20022;-32
2021/12/04 02:38:16;;;;;;;0.20;0.20;;;17.50;64.00;;;;;;5026341;28;20115;-25
2021/12/04 02:40:46;;;;;;;0.30;0.20;;;17.50;64.10;;;;;;5029166;28;20108;-28
2021/12/04 02:43:12;;;;;;;0.10;0.10;;;17.50;64.10;;;;;;5026900;28;20038;-27
2021/12/04 02:45:38;;;;;;;1.08;0.10;;;17.50;64.20;;;;;;5027911;28;20026;-28
2021/12/04 02:48:04;;;;;;;0.10;0.10;;;17.50;64.00;;;;;;5027052;28;20052;-30
2021/12/04 02:50:29;;;;;;;0.00;0.00;;;17.50;64.10;;;;;;5025826;28;20097;-30
2021/12/04 02:52:55;;;;;;;0.43;0.20;;;17.50;64.10;;;;;;5027814;28;20565;-24
2021/12/04 02:55:21;;;;;;;0.20;0.20;;;17.50;64.30;;;;;;5031546;28;20022;-22
2021/12/04 02:57:46;;;;;;;0.10;0.10;;;17.50;64.10;;;;;;5030828;28;20037;-21
2021/12/04 03:00:17;;;;;;;0.10;0.10;;;17.50;64.00;;;;;;5031636;28;20045;-27
2021/12/04 03:02:43;;;;;;;0.47;0.20;;;17.50;64.10;;;;;;5033840;28;20038;-26
2021/12/04 03:05:10;;;;;;;0.35;0.10;;;17.50;64.10;;;;;;5030520;28;20025;-26
2021/12/04 03:07:36;;;;;;;0.10;0.10;;;17.50;64.10;;;;;;5029997;28;20073;-27
2021/12/04 03:10:01;;;;;;;0.90;0.20;;;17.40;64.20;;;;;;5035542;28;20029;-28
2021/12/04 03:12:27;;;;;;;0.10;0.10;;;17.50;64.20;;;;;;5032588;28;20033;-25
2021/12/04 03:14:53;;;;;;;0.10;0.10;;;17.50;64.40;;;;;;5034244;28;20052;-27
2021/12/04 03:17:20;;;;;;;0.30;0.20;;;17.50;64.00;;;;;;5032237;28;20036;-24
2021/12/04 03:19:46;;;;;;;0.10;0.10;;;17.50;64.10;;;;;;5032076;28;20025;-25
2021/12/04 03:22:14;;;;;;;0.10;0.10;;;17.50;64.20;;;;;;5031541;28;20034;-27
2021/12/04 03:24:40;;;;;;;0.05;0.05;;;17.50;64.30;;;;;;5033913;28;20029;-29
2021/12/04 03:27:06;;;;;;;0.20;0.10;;;17.50;65.00;;;;;;5034119;28;20033;-25
2021/12/04 03:29:37;;;;;;;0.20;0.10;;;17.40;64.30;;;;;;5032141;28;20025;-26
2021/12/04 03:43:01;;;;;;;0.75;0.10;;;17.50;64.10;;;;;;5029691;28;20128;-24
2021/12/04 03:45:27;;;;;;;0.25;0.03;;;17.50;64.40;;;;;;5030674;28;20052;-24
2021/12/04 03:47:57;;;;;;;0.10;0.00;;;17.50;64.40;;;;;;5029283;28;20049;-24
2021/12/04 03:50:23;;;;;;;0.10;0.05;;;17.40;64.40;;;;;;5028747;28;20099;-30
2021/12/04 03:52:49;;;;;;;0.43;0.22;;;17.50;64.20;;;;;;5028305;28;20100;-26
2021/12/04 03:55:14;;;;;;;0.10;0.10;;;17.50;64.30;;;;;;5026090;28;20033;-26
2021/12/04 03:57:44;;;;;;;0.35;0.10;;;17.50;64.60;;;;;;5025622;28;20036;-32
2021/12/04 04:00:12;;;;;;;0.10;0.10;;;17.40;65.00;;;;;;5025885;28;20032;-26
2021/12/04 04:02:38;;;;;;;0.10;0.10;;;17.50;64.50;;;;;;5029061;28;20013;-27
2021/12/04 04:05:04;;;;;;;1.58;0.35;;;17.50;64.20;;;;;;5026768;28;20064;-30
2021/12/04 04:07:30;;;;;;;0.73;0.30;;;17.50;64.20;;;;;;5028310;28;20441;-28
2021/12/04 04:09:56;;;;;;;0.45;0.10;;;17.50;64.20;;;;;;5027450;28;20021;-26
2021/12/04 04:12:21;;;;;;;0.20;0.10;;;17.50;64.50;;;;;;5030598;28;20060;-32
2021/12/04 04:14:47;;;;;;;0.10;0.10;;;17.50;64.50;;;;;;5030033;28;20029;-25
2021/12/04 04:17:12;;;;;;;0.20;0.17;;;17.50;64.30;;;;;;5024518;28;20033;-26
2021/12/04 04:19:38;;;;;;;0.10;0.10;;;17.50;64.30;;;;;;5023842;28;20025;-28
2021/12/04 04:22:04;;;;;;;0.10;0.10;;;17.50;64.40;;;;;;5026272;28;20175;-26
2021/12/04 04:24:31;;;;;;;0.10;0.10;;;17.40;64.40;;;;;;5027059;28;20433;-31
2021/12/04 04:26:57;;;;;;;0.52;0.20;;;17.50;64.40;;;;;;5025055;28;20082;-30
2021/12/04 04:29:24;;;;;;;0.75;0.20;;;17.50;64.30;;;;;;5026053;28;20543;-28
2021/12/04 04:31:50;;;;;;;0.95;0.10;;;17.50;64.20;;;;;;5023728;28;20033;-30
2021/12/04 04:34:23;;;;;;;0.20;0.20;;;17.50;64.30;;;;;;5023479;28;20095;-29
2021/12/04 04:40:28;;;;;;;0.10;0.10;;;17.50;64.30;;;;;;5030372;28;20040;-33
2021/12/04 05:12:23;;;;;;;0.10;0.10;;;17.50;64.10;;;;;;5028875;28;20091;-33
2021/12/04 05:14:55;;;;;;;0.00;0.00;;;17.50;64.00;;;;;;5025680;28;20042;-27
2021/12/04 05:20:05;;;;;;;0.00;0.00;;;17.50;63.80;;;;;;5029598;28;20087;-22
2021/12/04 05:22:32;;;;;;;0.03;0.00;;;17.60;63.80;;;;;;5027849;28;20029;-26
2021/12/04 05:24:57;;;;;;;0.10;0.10;;;17.60;63.80;;;;;;5027434;28;20029;-28
2021/12/04 05:27:23;;;;;;;0.10;0.10;;;17.60;63.80;;;;;;5028944;28;20045;-32
2021/12/04 05:29:49;;;;;;;0.10;0.10;;;17.60;63.70;;;;;;5028844;28;20037;-30
2021/12/04 05:32:16;;;;;;;0.08;0.08;;;17.60;63.60;;;;;;5028038;28;20613;-32
2021/12/04 05:34:42;;;;;;;0.22;0.08;;;17.60;63.50;;;;;;5027985;28;20033;-25
2021/12/04 05:37:08;;;;;;;0.00;0.00;;;17.60;63.60;;;;;;5027219;28;20029;-25
2021/12/04 05:39:33;;;;;;;0.10;0.10;;;17.60;64.10;;;;;;5021986;28;20049;-31
2021/12/04 05:42:00;;;;;;;0.10;0.10;;;17.60;63.60;;;;;;5030299;28;20025;-26
2021/12/04 05:44:26;;;;;;;0.10;0.00;;;17.60;63.50;;;;;;5029833;28;20033;-33
2021/12/04 05:47:11;;;;;;;0.10;0.10;;;17.60;63.40;;;;;;5029569;28;20033;-28
2021/12/04 05:49:58;;;;;;;;;;;17.60;63.50;;;;;;5030281;28;20052;-28
2021/12/04 05:52:37;;;;;;;0.03;0.03;;;17.60;63.40;;;;;;5035851;28;19909;-28
2021/12/04 05:55:21;;;;;;;0.10;0.10;;;17.60;63.40;;;;;;5033735;28;20033;-29
2021/12/04 05:57:46;;;;;;;1.45;0.08;;;17.60;63.60;;;;;;5034489;28;20442;-31
2021/12/04 06:00:18;;;;;;;0.00;0.00;;;17.60;63.60;;;;;;5036119;28;20029;-32
2021/12/04 06:02:44;;;;;;;0.85;0.05;;;17.50;63.60;;;;;;5035869;28;20018;-27
2021/12/04 06:05:10;;;;;;;0.10;0.10;;;17.50;63.60;;;;;;5036116;28;20026;-30
2021/12/04 06:07:36;;;;;;;0.10;0.10;;;17.50;63.60;;;;;;5035328;28;20486;-26
2021/12/04 06:10:01;;;;;;;0.00;0.00;;;17.50;63.70;;;;;;5030995;28;20736;-32
2021/12/04 06:12:27;;;;;;;0.10;0.10;;;17.60;63.70;;;;;;5032155;28;20052;-29
2021/12/04 06:14:53;;;;;;;0.00;0.00;;;17.60;63.70;;;;;;5035824;28;20144;-30
2021/12/04 06:17:19;;;;;;;0.80;0.08;;;17.50;63.60;;;;;;5035054;28;20633;-30
2021/12/04 06:22:42;;;;;;;;;;;17.50;63.70;;;;;;5029931;28;20040;-23
2021/12/04 06:25:16;;;;;;;0.20;0.10;;;17.50;63.60;;;;;;5028950;28;20365;-25
2021/12/04 06:27:42;;;;;;;0.00;0.00;;;17.50;63.60;;;;;;5024377;28;20080;-30
2021/12/04 06:30:10;;;;;;;0.10;0.10;;;17.50;63.60;;;;;;5026288;28;20044;-28
2021/12/04 06:32:36;;;;;;;0.13;0.05;;;17.50;63.70;;;;;;5029479;28;20497;-23
2021/12/04 06:35:07;;;;;;;0.10;0.00;;;17.50;63.60;;;;;;5027309;28;20044;-22
2021/12/04 06:37:32;;;;;;;0.00;0.00;;;17.50;63.60;;;;;;5027095;28;20166;-24
2021/12/04 06:39:58;;;;;;;0.30;0.00;;;17.50;63.60;;;;;;5026487;28;20037;-24
2021/12/04 06:42:23;;;;;;;0.20;0.20;;;17.60;63.60;;;;;;5024935;28;20072;-28
2021/12/04 06:44:52;;;;;;;0.00;0.00;;;17.60;63.60;;;;;;5024658;28;20375;-29
2021/12/04 06:47:18;;;;;;;0.00;0.00;;;17.50;63.60;;;;;;5027499;28;20021;-29
2021/12/04 06:49:44;;;;;;;0.10;0.10;;;17.60;63.50;;;;;;5030011;28;20509;-25
2021/12/04 06:52:15;;;;;;;0.00;0.00;;;17.50;63.50;;;;;;5027982;28;20037;-27
2021/12/04 06:54:49;;;;;;;0.13;0.03;;;17.60;63.50;;;;;;5026144;28;20042;-23
2021/12/04 06:57:16;;;;;;;0.00;0.00;;;17.60;63.40;;;;;;5025319;28;20033;-32
2021/12/04 06:59:42;;;;;;;0.17;0.10;;;17.60;63.50;;;;;;5028107;28;20402;-30
2021/12/04 07:02:08;;;;;;;0.00;0.00;;;17.60;63.60;;;;;;5025037;28;20053;-27
2021/12/04 07:04:37;;;;;;;0.15;0.00;;;17.50;63.60;;;;;;5028079;28;20021;-30
2021/12/04 07:07:05;;;;;;;0.15;0.10;;;17.50;63.60;;;;;;5026934;28;20534;-26
2021/12/04 07:09:30;;;;;;;0.00;0.00;;;17.50;63.50;;;;;;5027780;28;21019;-30
2021/12/04 07:11:57;;;;;;;0.35;0.35;;;17.50;63.50;;;;;;5024798;28;20030;-25
2021/12/04 07:14:23;;;;;;;0.08;0.03;;;17.50;63.40;;;;;;5023179;28;20102;-32
2021/12/04 07:16:48;;;;;;;0.30;0.10;;;17.50;63.50;;;;;;5027385;28;20529;-29
2021/12/04 07:19:14;;;;;;;0.00;0.00;;;17.50;63.40;;;;;;5027083;28;20014;-29
2021/12/04 07:21:40;;;;;;;0.00;0.00;;;17.50;63.60;;;;;;5026283;28;20605;-21
2021/12/04 07:24:06;;;;;;;0.10;0.10;;;17.50;63.60;;;;;;5028030;28;20021;-29
2021/12/04 07:26:31;;;;;;;0.52;0.00;;;17.50;63.70;;;;;;5027102;28;20029;-25
2021/12/04 07:28:57;;;;;;;0.15;0.10;;;17.50;63.70;;;;;;5028274;28;20048;-32
2021/12/04 07:31:23;;;;;;;0.10;0.10;;;17.50;63.40;;;;;;5029081;28;20025;-28
2021/12/04 07:33:50;;;;;;;0.65;0.10;;;17.40;63.20;;;;;;5026896;28;20025;-27
2021/12/04 07:36:16;;;;;;;0.00;0.00;;;17.40;63.00;;;;;;5024144;28;20099;-26
2021/12/04 07:38:41;;;;;;;0.10;0.10;;;17.40;63.50;;;;;;5025167;28;20025;-21
2021/12/04 07:41:08;;;;;;;0.47;0.20;;;17.40;63.20;;;;;;5030308;28;20040;-31
2021/12/04 07:43:33;;;;;;;1.40;0.30;;;17.50;63.20;;;;;;5026890;28;20397;-26
2021/12/04 07:45:59;;;;;;;0.50;0.10;;;17.30;63.30;;;;;;5027983;28;20071;-26
2021/12/04 07:48:25;;;;;;;0.20;0.20;;;17.30;62.80;;;;;;5028143;28;20053;-24
2021/12/04 07:50:50;;;;;;;0.25;0.15;;;17.30;62.70;;;;;;5031346;28;20022;-27
2021/12/04 07:53:16;;;;;;;0.85;0.20;;;17.40;62.60;;;;;;5030518;28;20577;-25
2021/12/04 07:55:42;;;;;;;2.17;0.30;;;17.40;62.40;;;;;;5027410;28;20029;-24
2021/12/04 07:58:07;;;;;;;0.20;0.20;;;17.40;62.60;;;;;;5031118;28;20033;-30
2021/12/04 08:00:33;;;;;;;0.63;0.30;;;17.40;62.60;;;;;;5030676;28;20155;-27
2021/12/04 08:03:01;;;;;;;1.42;0.60;;;17.50;62.40;;;;;;4680825;28;10000603;-30
2021/12/04 08:05:28;;;;;;;1.27;0.60;;;17.40;62.30;;;;;;5028155;28;20036;-24
2021/12/04 08:07:55;;;;;;;1.23;1.00;;;17.50;62.30;;;;;;5027580;28;20033;-24
2021/12/04 08:10:21;;;;;;;1.42;0.75;;;17.50;62.30;;;;;;5029546;28;20091;-27
2021/12/04 08:12:47;;;;;;;1.10;1.00;;;17.50;62.40;;;;;;5027325;28;20029;-30
2021/12/04 08:15:13;;;;;;;1.15;1.05;;;17.50;62.30;;;;;;5028858;28;20053;-29
2021/12/04 08:17:40;;;;;;;1.20;1.10;;;17.50;62.20;;;;;;5029797;28;20120;-23
2021/12/04 08:20:06;;;;;;;1.08;0.80;;;17.50;62.20;;;;;;5026501;28;20548;-29
2021/12/04 08:22:33;;;;;;;2.13;1.15;;;17.50;62.40;;;;;;5045741;28;20038;-28
2021/12/04 08:24:59;;;;;;;1.00;0.90;;;17.50;62.40;;;;;;5026006;28;20036;-28
2021/12/04 08:27:25;;;;;;;0.80;0.73;;;17.50;62.40;;;;;;5031104;28;20033;-25
2021/12/04 08:29:50;;;;;;;0.77;0.77;;;17.50;62.30;;;;;;5031309;28;20037;-25
2021/12/04 08:32:16;;;;;;;0.98;0.90;;;17.50;62.30;;;;;;5034284;28;20089;-29
2021/12/04 08:34:41;;;;;;;1.10;1.00;;;17.50;62.50;;;;;;5042736;28;20021;-25
2021/12/04 08:37:07;;;;;;;1.23;0.95;;;17.40;62.70;;;;;;5044823;28;20872;-32
2021/12/04 08:39:33;;;;;;;1.00;0.90;;;17.50;62.60;;;;;;5040958;28;20037;-32
2021/12/04 08:41:59;;;;;;;1.10;1.10;;;17.50;62.50;;;;;;5022290;28;20033;-31
2021/12/04 08:44:25;;;;;;;1.23;1.13;;;17.50;62.70;;;;;;5016988;28;20101;-30
2021/12/04 08:46:50;;;;;;;1.00;1.00;;;17.40;62.50;;;;;;5035008;28;20029;-28
2021/12/04 08:49:16;;;;;;;1.48;1.38;;;17.50;63.00;;;;;;5031502;28;20060;-30
2021/12/04 08:51:42;;;;;;;1.42;1.30;;;17.30;63.60;;;;;;5031383;28;20127;-31
2021/12/04 08:54:08;;;;;;;2.28;1.40;;;17.30;64.00;;;;;;5034293;28;20055;-28
2021/12/04 08:56:33;;;;;;;5.40;1.50;;;17.40;64.10;;;;;;5038280;28;20585;-31
2021/12/04 08:59:00;;;;;;;3.05;1.70;;;17.40;65.30;;;;;;5041680;28;20097;-29
2021/12/04 09:01:28;;;;;;;2.13;1.60;;;17.50;65.50;;;;;;5028316;28;20049;-33
2021/12/04 09:03:57;;;;;;;3.08;1.60;;;17.50;66.00;;;;;;5034478;28;20049;-36
2021/12/04 09:06:22;;;;;;;3.53;1.80;;;17.50;65.50;;;;;;5027708;28;20055;-29
2021/12/04 09:08:48;;;;;;;3.10;1.80;;;17.50;66.20;;;;;;5038114;28;20608;-29
2021/12/04 09:11:17;;;;;;;2.60;1.48;;;17.60;65.70;;;;;;5033599;28;20045;-27
2021/12/04 09:13:43;;;;;;;1.70;1.30;;;17.60;66.00;;;;;;5037085;28;20059;-29
2021/12/04 09:16:09;;;;;;;2.50;1.50;;;17.60;65.90;;;;;;5028566;28;20552;-30
2021/12/04 09:18:35;;;;;;;4.38;1.52;;;17.50;66.20;;;;;;5038758;28;20036;-33
2021/12/04 09:21:04;;;;;;;6.30;1.52;;;17.50;66.10;;;;;;5037199;28;20049;-31
2021/12/04 09:23:34;;;;;;;3.53;1.52;;;17.60;66.00;;;;;;5037854;28;20065;-28
2021/12/04 09:26:03;;;;;;;2.25;1.50;;;17.60;66.00;;;;;;5045227;28;20080;-32
2021/12/04 10:01:45;;;;;;;1.37;1.17;;;17.70;66.10;;;;;;4687378;28;9999746;-29
2021/12/04 10:23:44;;;;;;;1.60;1.20;;;17.80;66.20;;;;;;5023217;28;20076;-32
2021/12/04 10:34:51;;;;;;;1.20;1.10;;;17.80;66.10;;;;;;5028684;28;20060;-27
2021/12/04 10:37:23;;;;;;;1.33;1.23;;;17.80;66.30;;;;;;5026394;28;20049;-31
2021/12/04 10:39:50;;;;;;;3.55;1.08;;;17.70;66.40;;;;;;5014443;28;20056;-28
2021/12/04 10:42:20;;;;;;;2.35;1.90;;;17.70;66.30;;;;;;5029735;28;20093;-26
2021/12/04 10:44:49;;;;;;;3.63;2.70;;;17.70;67.60;;;;;;5028545;28;20211;-31
2021/12/04 10:47:22;;;;;;;3.42;2.58;;;17.70;67.30;;;;;;5013763;28;20049;-25
2021/12/04 10:50:04;;;;;;;2.10;1.90;;;17.70;66.80;;;;;;5028308;28;20068;-26
2021/12/04 11:03:24;;;;;;;7.13;3.42;;;17.70;66.90;;;;;;5023574;28;20157;-24
2021/12/04 11:43:05;;;;;;;3.78;2.70;;;17.80;67.20;;;;;;5030639;28;20048;-29
2021/12/04 11:45:45;;;;;;;3.97;2.35;;;17.70;67.10;;;;;;5048240;28;20088;-28
2021/12/04 11:48:11;;;;;;;4.05;2.53;;;17.80;66.70;;;;;;5032352;28;20477;-32
2021/12/04 11:50:39;;;;;;;3.63;2.97;;;17.80;67.50;;;;;;5032626;28;20052;-36
2021/12/04 11:53:12;;;;;;;3.30;2.53;;;17.80;66.50;;;;;;5032886;28;20048;-30
2021/12/04 11:55:43;;;;;;;3.67;2.60;;;17.90;66.10;;;;;;5033015;28;20053;-30
2021/12/04 11:58:32;;;;;;;3.92;2.58;;;17.90;66.20;;;;;;5032636;28;20045;-32
2021/12/04 12:01:00;;;;;;;3.30;2.60;;;17.90;66.20;;;;;;5031422;28;20128;-30
2021/12/04 12:03:27;;;;;;;4.35;2.15;;;17.90;66.10;;;;;;5027030;28;20049;-30
2021/12/04 12:05:57;;;;;;;3.15;2.45;;;17.90;66.70;;;;;;5032252;28;20061;-28
2021/12/04 12:08:49;;;;;;;4.80;2.83;;;17.90;66.90;;;;;;5032193;28;20086;-27
2021/12/04 12:11:24;;;;;;;2.63;2.42;;;17.90;67.30;;;;;;5016926;28;20466;-28
2021/12/04 12:13:55;;;;;;;2.25;2.05;;;17.90;66.80;;;;;;5032877;28;20041;-33
2021/12/04 12:16:31;;;;;;;3.03;2.50;;;17.90;66.80;;;;;;5032267;28;20057;-32
2021/12/04 12:18:59;;;;;;;2.60;2.25;;;17.90;67.10;;;;;;5032301;28;20615;-29
2021/12/04 12:21:34;;;;;;;2.65;2.45;;;17.90;67.40;;;;;;5032027;28;20051;-32
2021/12/04 12:27:09;;;;;;;3.88;2.38;;;17.90;67.00;;;;;;5031592;28;20049;-36
2021/12/04 12:32:42;;;;;;;2.63;2.00;;;18.00;67.20;;;;;;5020067;28;20591;-34
2021/12/04 12:38:53;;;;;;;3.35;1.92;;;17.90;67.20;;;;;;5027456;28;20055;-32
2021/12/04 12:41:41;;;;;;;4.22;2.35;;;18.00;67.30;;;;;;5029234;28;20144;-35
2021/12/04 12:44:23;;;;;;;2.53;2.25;;;18.00;67.70;;;;;;5034017;28;20084;-33
2021/12/04 12:46:52;;;;;;;2.88;2.58;;;18.00;67.70;;;;;;5042317;28;20057;-33
2021/12/04 12:49:33;;;;;;;3.08;2.00;;;18.10;69.10;;;;;;5053276;28;20141;-30
2021/12/04 12:52:01;;;;;;;2.25;1.85;;;18.00;67.60;;;;;;5057112;28;20045;-27
2021/12/04 12:54:30;;;;;;;2.53;1.95;;;18.00;68.80;;;;;;5039797;28;20053;-25
2021/12/04 12:57:22;;;;;;;5.82;2.47;;;18.00;67.80;;;;;;5034406;28;20053;-30
2021/12/04 13:13:37;;;;;;;2.30;2.03;;;18.10;68.80;;;;;;5034713;28;20654;-31
2021/12/04 13:16:20;;;;;;;4.90;1.95;;;18.20;68.20;;;;;;5034570;28;20540;-29
2021/12/04 13:18:51;;;;;;;2.70;2.50;;;18.20;68.30;;;;;;5068159;28;20048;-29
2021/12/04 13:21:16;;;;;;;2.40;2.20;;;18.20;68.60;;;;;;5072085;28;20521;-29
2021/12/04 13:23:47;;;;;;;2.63;2.00;;;18.20;68.10;;;;;;5054354;28;20084;-24
2021/12/04 13:26:13;;;;;;;3.08;2.35;;;18.20;68.30;;;;;;5051929;28;20040;-23
2021/12/04 13:28:41;;;;;;;2.53;2.33;;;18.20;68.10;;;;;;5074587;28;20043;-26
2021/12/04 13:31:06;;;;;;;3.05;2.85;;;18.20;68.50;;;;;;5073346;28;20093;-29
2021/12/04 13:33:36;;;;;;;3.28;2.67;;;18.20;68.60;;;;;;5058453;28;20053;-26
2021/12/04 13:36:02;;;;;;;2.40;2.20;;;18.20;68.00;;;;;;5029765;28;20042;-31
2021/12/04 13:38:27;;;;;;;2.30;2.17;;;18.10;68.10;;;;;;5013566;28;20053;-30
2021/12/04 13:40:54;;;;;;;3.30;3.00;;;18.20;68.20;;;;;;5041799;28;20037;-30
2021/12/04 13:43:20;;;;;;;2.88;2.67;;;18.10;68.30;;;;;;5032394;28;20067;-25
2021/12/04 13:45:54;;;;;;;3.15;2.85;;;18.10;68.70;;;;;;5041023;28;20042;-31
2021/12/04 13:48:20;;;;;;;4.13;2.55;;;18.10;68.60;;;;;;5043142;28;20053;-28
2021/12/04 13:50:45;;;;;;;2.53;2.33;;;18.10;68.60;;;;;;5039681;28;20041;-32
2021/12/04 13:53:25;;;;;;;3.75;2.65;;;18.10;68.40;;;;;;5033539;28;20116;-32
2021/12/04 13:56:09;;;;;;;2.22;2.03;;;18.10;68.50;;;;;;5021088;28;20042;-30
2021/12/04 13:58:49;;;;;;;2.80;2.60;;;18.00;68.60;;;;;;5016917;28;20086;-31
2021/12/04 14:01:15;;;;;;;3.40;2.42;;;18.00;68.60;;;;;;5043425;28;20061;-32
2021/12/04 14:03:41;;;;;;;2.22;2.08;;;18.00;68.40;;;;;;5034048;28;20040;-30
2021/12/04 14:06:14;;;;;;;3.90;2.60;;;18.00;68.10;;;;;;5028924;28;20080;-27
2021/12/04 14:08:40;;;;;;;2.40;2.13;;;18.00;68.30;;;;;;5043426;28;20046;-28
2021/12/04 14:11:05;;;;;;;4.45;2.30;;;18.00;68.60;;;;;;5048101;28;20328;-30
2021/12/04 14:13:31;;;;;;;4.88;2.45;;;18.10;68.40;;;;;;5045882;28;20041;-30
2021/12/04 14:15:57;;;;;;;3.08;1.98;;;18.00;68.50;;;;;;5034198;28;20041;-26
2021/12/04 14:18:23;;;;;;;2.17;2.00;;;17.90;68.30;;;;;;5030645;28;20048;-30
2021/12/04 14:20:51;;;;;;;3.55;1.98;;;18.00;68.40;;;;;;5033539;28;20056;-33
2021/12/04 14:23:16;;;;;;;2.20;2.00;;;18.00;68.10;;;;;;5033263;28;20491;-29
2021/12/04 14:25:43;;;;;;;2.50;2.00;;;18.00;68.00;;;;;;5033761;28;20111;-28
2021/12/04 14:28:10;;;;;;;1.67;1.57;;;18.10;67.80;;;;;;4694607;28;10000340;-31
2021/12/04 14:30:36;;;;;;;2.75;1.70;;;18.00;67.80;;;;;;5034935;28;20065;-27
2021/12/04 14:33:07;;;;;;;1.95;1.85;;;18.10;67.80;;;;;;5030590;28;20038;-30
2021/12/04 14:35:37;;;;;;;1.80;1.70;;;18.00;67.70;;;;;;5033239;28;20048;-31
2021/12/04 14:38:09;;;;;;;2.42;2.00;;;18.10;68.00;;;;;;5033454;28;20049;-30
2021/12/04 14:40:41;;;;;;;1.80;1.70;;;17.90;68.20;;;;;;5033355;28;20378;-34
2021/12/04 14:43:08;;;;;;;2.70;2.10;;;17.90;68.70;;;;;;5033487;28;20045;-35
2021/12/04 14:45:35;;;;;;;2.78;1.40;;;17.80;68.40;;;;;;5033400;28;20494;-36
2021/12/04 14:48:09;;;;;;;1.80;1.70;;;17.80;68.40;;;;;;5032314;28;20053;-33
2021/12/04 14:50:37;;;;;;;1.55;1.45;;;17.90;68.00;;;;;;5023221;28;20152;-32
2021/12/04 14:53:04;;;;;;;2.40;1.23;;;17.80;68.20;;;;;;5025000;28;20050;-35
2021/12/04 14:55:32;;;;;;;1.63;1.52;;;17.80;68.50;;;;;;5026039;28;20042;-36
2021/12/04 14:57:58;;;;;;;2.65;1.30;;;17.80;68.00;;;;;;5046308;28;20049;-26
2021/12/04 15:00:28;;;;;;;3.15;1.60;;;17.80;68.60;;;;;;5020326;28;20476;-33
2021/12/04 15:03:00;;;;;;;2.70;1.52;;;17.80;68.60;;;;;;5016945;28;20418;-33
2021/12/04 15:05:35;;;;;;;1.65;1.40;;;17.70;68.70;;;;;;5033624;28;20050;-29
2021/12/04 15:08:09;;;;;;;3.15;1.60;;;17.80;68.60;;;;;;5017471;28;20490;-28
2021/12/04 15:10:35;;;;;;;1.63;1.33;;;17.70;68.40;;;;;;5016939;28;20046;-31
2021/12/04 15:13:01;;;;;;;1.40;1.30;;;17.80;68.30;;;;;;5017236;28;20052;-28
2021/12/04 15:15:31;;;;;;;2.25;1.35;;;17.70;68.60;;;;;;5017348;28;20124;-33
2021/12/04 15:17:59;;;;;;;3.65;1.15;;;17.60;69.20;;;;;;5042075;28;20053;-30
2021/12/04 15:20:35;;;;;;;1.08;1.00;;;17.70;68.80;;;;;;5054161;28;20041;-29
2021/12/04 15:23:04;;;;;;;1.23;1.00;;;17.60;68.90;;;;;;5043762;28;20055;-29
2021/12/04 15:25:33;;;;;;;5.63;1.10;;;17.70;69.00;;;;;;5025389;28;20063;-26
2021/12/04 15:27:59;;;;;;;1.27;1.17;;;17.80;68.40;;;;;;5035655;28;20068;-24
2021/12/04 15:30:26;;;;;;;1.90;1.20;;;17.90;68.20;;;;;;5035878;28;20041;-20
2021/12/04 15:32:51;;;;;;;1.52;0.93;;;17.60;69.00;;;;;;5037083;28;20052;-24
2021/12/04 15:38:10;;;;;;;1.48;1.10;;;17.60;69.10;;;;;;5017075;28;20046;-26
2021/12/04 15:40:45;;;;;;;0.70;0.70;;;17.70;68.60;;;;;;5016402;28;20089;-20
2021/12/04 15:43:23;;;;;;;2.97;0.90;;;17.70;68.40;;;;;;5016744;28;20438;-27
2021/12/04 15:46:07;;;;;;;3.03;1.10;;;17.70;68.30;;;;;;5016621;28;20467;-26
2021/12/04 15:53:53;;;;;;;1.15;0.80;;;17.50;68.90;;;;;;5023486;28;20129;-23
2021/12/04 15:56:36;;;;;;;2.25;0.80;;;17.60;68.40;;;;;;5023212;28;20034;-20
2021/12/04 15:59:04;;;;;;;2.55;1.00;;;17.50;68.40;;;;;;5040367;28;20136;-20
2021/12/04 16:01:30;;;;;;;2.13;0.90;;;17.60;68.10;;;;;;5040243;28;20045;-23
2021/12/04 16:03:55;;;;;;;0.70;0.70;;;17.50;67.80;;;;;;5030307;28;20047;-30
2021/12/04 16:06:21;;;;;;;1.38;0.70;;;17.60;67.50;;;;;;5032985;28;20041;-24
2021/12/04 16:08:47;;;;;;;1.92;0.80;;;17.60;67.30;;;;;;5042340;28;20183;-25
2021/12/04 16:11:14;;;;;;;0.73;0.73;;;17.60;67.40;;;;;;5015767;28;20513;-28
2021/12/04 16:13:42;;;;;;;1.05;0.70;;;17.50;67.30;;;;;;5021849;28;20046;-31
2021/12/04 16:16:13;;;;;;;2.17;0.88;;;17.50;67.30;;;;;;5035036;28;20133;-24